Mechanicstown, Ohio
Current Conditions -  °F | °C
As of 2:53 AM on Saturday 25 Oct 2014 (Local Time) from KPHD Reporting Station
Scattered Clouds Scattered Clouds  
Wind Chill: 41°   Ceiling: Unl
Heat Index: 41°   Visibility: 8mi
Dew Point: 38°   Wind: 3mph
Humidity: 89%   Direction: 120°ESE
Pressure: 30"   Gusts: NA
Location:  40.62°N, 80.95°W
Report Text: KPHD 250653Z AUTO 12003KT 8SM SCT045 05/03 A3000 RMK AO2 SLP162 T00500033
Loading
Personal Weather Stations






























Interactive Weather Map
Tropical Storm Tracking
New forecast layout! Learn more

10-Day Weather Forecast

Advertisements
Track Severe Weather on mobile